sensor_id;sensor_type;location;lat;lon;timestamp;pressure;altitude;pressure_sealevel;temperature;humidity
37648;BME280;23490;53.656;10.076;2023-04-01T00:01:10;99178.44;;;-145.95;100.00
37648;BME280;23490;53.656;10.076;2023-04-01T00:03:37;99228.00;;;-145.95;100.00
37648;BME280;23490;53.656;10.076;2023-04-01T00:06:03;99170.19;;;-145.95;100.00
37648;BME280;23490;53.656;10.076;2023-04-01T00:08:28;99170.19;;;-145.95;100.00
37648;BME280;23490;53.656;10.076;2023-04-01T00:10:54;99192.91;;;-145.95;100.00
37648;BME280;23490;53.656;10.076;2023-04-01T00:13:20;99199.09;;;-145.95;100.00
37648;BME280;23490;53.656;10.076;2023-04-01T00:15:45;99199.09;;;-145.95;100.00
37648;BME280;23490;53.656;10.076;2023-04-01T00:18:11;99141.28;;;-145.95;100.00
37648;BME280;23490;53.656;10.076;2023-04-01T00:20:38;99223.88;;;-145.95;100.00
37648;BME280;23490;53.656;10.076;2023-04-01T00:23:03;99190.84;;;-145.95;100.00
37648;BME280;23490;53.656;10.076;2023-04-01T00:25:30;99186.72;;;-145.95;100.00
37648;BME280;23490;53.656;10.076;2023-04-01T00:27:56;99186.72;;;-145.95;100.00
37648;BME280;23490;53.656;10.076;2023-04-01T00:30:21;99190.84;;;-145.95;100.00
37648;BME280;23490;53.656;10.076;2023-04-01T00:32:46;99203.22;;;-145.95;100.00
37648;BME280;23490;53.656;10.076;2023-04-01T00:35:12;99207.38;;;-145.95;100.00
37648;BME280;23490;53.656;10.076;2023-04-01T00:37:38;99205.28;;;-145.95;100.00
37648;BME280;23490;53.656;10.076;2023-04-01T00:40:06;99170.19;;;-145.95;100.00
37648;BME280;23490;53.656;10.076;2023-04-01T00:42:33;99174.31;;;-145.95;100.00
37648;BME280;23490;53.656;10.076;2023-04-01T00:44:58;99170.19;;;-145.95;100.00
37648;BME280;23490;53.656;10.076;2023-04-01T00:47:24;99205.28;;;-145.95;100.00
37648;BME280;23490;53.656;10.076;2023-04-01T00:49:52;99201.16;;;-145.95;100.00
37648;BME280;23490;53.656;10.076;2023-04-01T00:52:22;99211.50;;;-145.95;100.00
37648;BME280;23490;53.656;10.076;2023-04-01T00:54:50;99194.97;;;-145.95;100.00
37648;BME280;23490;53.656;10.076;2023-04-01T00:57:34;99213.56;;;-145.95;100.00
37648;BME280;23490;53.656;10.076;2023-04-01T01:00:04;99207.38;;;-145.95;100.00
37648;BME280;23490;53.656;10.076;2023-04-01T01:02:32;99203.22;;;-145.95;100.00
37648;BME280;23490;53.656;10.076;2023-04-01T01:04:58;99194.97;;;-145.95;100.00
37648;BME280;23490;53.656;10.076;2023-04-01T01:07:44;99205.28;;;-145.95;100.00
37648;BME280;23490;53.656;10.076;2023-04-01T01:10:23;99207.38;;;-145.95;100.00
37648;BME280;23490;53.656;10.076;2023-04-01T01:15:29;99172.25;;;-145.95;100.00
37648;BME280;23490;53.656;10.076;2023-04-01T01:18:03;99221.81;;;-145.95;100.00
37648;BME280;23490;53.656;10.076;2023-04-01T01:23:42;99199.09;;;-145.95;100.00
37648;BME280;23490;53.656;10.076;2023-04-01T01:26:36;99256.94;;;-145.95;100.00
37648;BME280;23490;53.656;10.076;2023-04-01T01:37:40;99203.22;;;-145.95;100.00
37648;BME280;23490;53.656;10.076;2023-04-01T01:40:09;99192.91;;;-145.95;100.00
37648;BME280;23490;53.656;10.076;2023-04-01T01:42:39;99211.50;;;-145.95;100.00
37648;BME280;23490;53.656;10.076;2023-04-01T01:45:08;99223.88;;;-145.95;100.00
37648;BME280;23490;53.656;10.076;2023-04-01T01:47:37;99209.44;;;-145.95;100.00
37648;BME280;23490;53.656;10.076;2023-04-01T01:50:04;99228.00;;;-145.95;100.00
37648;BME280;23490;53.656;10.076;2023-04-01T01:52:31;99207.38;;;-145.95;100.00
37648;BME280;23490;53.656;10.076;2023-04-01T01:54:58;99240.41;;;-145.95;100.00
37648;BME280;23490;53.656;10.076;2023-04-01T01:57:27;99242.47;;;-145.95;100.00
37648;BME280;23490;53.656;10.076;2023-04-01T01:59:56;99205.28;;;-145.95;100.00
37648;BME280;23490;53.656;10.076;2023-04-01T02:02:25;99223.88;;;-145.95;100.00
37648;BME280;23490;53.656;10.076;2023-04-01T02:04:51;99219.75;;;-145.95;100.00
37648;BME280;23490;53.656;10.076;2023-04-01T02:07:25;99211.50;;;-145.95;100.00
37648;BME280;23490;53.656;10.076;2023-04-01T02:09:53;99223.88;;;-145.95;100.00
37648;BME280;23490;53.656;10.076;2023-04-01T02:12:19;99240.41;;;-145.95;100.00
37648;BME280;23490;53.656;10.076;2023-04-01T02:17:17;99236.28;;;-145.95;100.00
37648;BME280;23490;53.656;10.076;2023-04-01T02:22:20;99223.88;;;-145.95;100.00
37648;BME280;23490;53.656;10.076;2023-04-01T02:24:49;99265.19;;;-145.95;100.00
37648;BME280;23490;53.656;10.076;2023-04-01T02:27:16;99261.06;;;-145.95;100.00
37648;BME280;23490;53.656;10.076;2023-04-01T02:29:41;99209.44;;;-145.95;100.00
37648;BME280;23490;53.656;10.076;2023-04-01T02:32:08;99242.47;;;-145.95;100.00
37648;BME280;23490;53.656;10.076;2023-04-01T02:34:34;99256.94;;;-145.95;100.00
37648;BME280;23490;53.656;10.076;2023-04-01T02:37:00;99228.00;;;-145.95;100.00
37648;BME280;23490;53.656;10.076;2023-04-01T02:39:25;99230.06;;;-145.95;100.00
37648;BME280;23490;53.656;10.076;2023-04-01T02:41:52;99228.00;;;-145.95;100.00
37648;BME280;23490;53.656;10.076;2023-04-01T02:44:17;99225.94;;;-145.95;100.00
37648;BME280;23490;53.656;10.076;2023-04-01T02:46:43;99190.84;;;-145.95;100.00
37648;BME280;23490;53.656;10.076;2023-04-01T02:49:09;99250.72;;;-145.95;100.00
37648;BME280;23490;53.656;10.076;2023-04-01T02:51:34;99215.63;;;-145.95;100.00
37648;BME280;23490;53.656;10.076;2023-04-01T02:54:01;99209.44;;;-145.95;100.00
37648;BME280;23490;53.656;10.076;2023-04-01T02:56:27;99261.06;;;-145.95;100.00
37648;BME280;23490;53.656;10.076;2023-04-01T02:58:53;99273.44;;;-145.95;100.00
37648;BME280;23490;53.656;10.076;2023-04-01T03:01:18;99228.00;;;-145.95;100.00
37648;BME280;23490;53.656;10.076;2023-04-01T03:03:44;99252.78;;;-145.95;100.00
37648;BME280;23490;53.656;10.076;2023-04-01T03:06:12;99252.78;;;-145.95;100.00
37648;BME280;23490;53.656;10.076;2023-04-01T03:08:38;99232.16;;;-145.95;100.00
37648;BME280;23490;53.656;10.076;2023-04-01T03:11:04;99250.72;;;-145.95;100.00
37648;BME280;23490;53.656;10.076;2023-04-01T03:13:30;99213.56;;;-145.95;100.00
37648;BME280;23490;53.656;10.076;2023-04-01T03:15:55;99211.50;;;-145.95;100.00
37648;BME280;23490;53.656;10.076;2023-04-01T03:18:23;99248.66;;;-145.95;100.00
37648;BME280;23490;53.656;10.076;2023-04-01T03:20:48;99267.25;;;-145.95;100.00
37648;BME280;23490;53.656;10.076;2023-04-01T03:23:14;99236.28;;;-145.95;100.00
37648;BME280;23490;53.656;10.076;2023-04-01T03:25:45;99248.66;;;-145.95;100.00
37648;BME280;23490;53.656;10.076;2023-04-01T03:28:10;99242.47;;;-145.95;100.00
37648;BME280;23490;53.656;10.076;2023-04-01T03:30:35;99265.19;;;-145.95;100.00
37648;BME280;23490;53.656;10.076;2023-04-01T03:33:01;99234.22;;;-145.95;100.00
37648;BME280;23490;53.656;10.076;2023-04-01T03:35:27;99261.06;;;-145.95;100.00
37648;BME280;23490;53.656;10.076;2023-04-01T03:37:53;99211.50;;;-145.95;100.00
37648;BME280;23490;53.656;10.076;2023-04-01T03:40:19;99250.72;;;-145.95;100.00
37648;BME280;23490;53.656;10.076;2023-04-01T03:42:45;99265.19;;;-145.95;100.00
37648;BME280;23490;53.656;10.076;2023-04-01T03:45:11;99248.66;;;-145.95;100.00
37648;BME280;23490;53.656;10.076;2023-04-01T03:47:37;99273.44;;;-145.95;100.00
37648;BME280;23490;53.656;10.076;2023-04-01T03:50:03;99248.66;;;-145.95;100.00
37648;BME280;23490;53.656;10.076;2023-04-01T03:52:28;99275.50;;;-145.95;100.00
37648;BME280;23490;53.656;10.076;2023-04-01T03:54:53;99215.63;;;-145.95;100.00
37648;BME280;23490;53.656;10.076;2023-04-01T03:57:19;99236.28;;;-145.95;100.00
37648;BME280;23490;53.656;10.076;2023-04-01T03:59:44;99269.31;;;-145.95;100.00
37648;BME280;23490;53.656;10.076;2023-04-01T04:02:09;99248.66;;;-145.95;100.00
37648;BME280;23490;53.656;10.076;2023-04-01T04:04:35;99275.50;;;-145.95;100.00
37648;BME280;23490;53.656;10.076;2023-04-01T04:07:00;99302.34;;;-145.95;100.00
37648;BME280;23490;53.656;10.076;2023-04-01T04:09:27;99240.41;;;-145.95;100.00
37648;BME280;23490;53.656;10.076;2023-04-01T04:11:52;99225.94;;;-145.95;100.00
37648;BME280;23490;53.656;10.076;2023-04-01T04:14:18;99271.38;;;-145.95;100.00
37648;BME280;23490;53.656;10.076;2023-04-01T04:16:44;99188.78;;;-145.95;100.00
37648;BME280;23490;53.656;10.076;2023-04-01T04:19:09;99236.28;;;-145.95;100.00
37648;BME280;23490;53.656;10.076;2023-04-01T04:21:36;99244.53;;;-145.95;100.00
37648;BME280;23490;53.656;10.076;2023-04-01T04:24:02;99269.31;;;-145.95;100.00
37648;BME280;23490;53.656;10.076;2023-04-01T04:26:29;99267.25;;;-145.95;100.00
37648;BME280;23490;53.656;10.076;2023-04-01T04:28:55;99265.19;;;-145.95;100.00
37648;BME280;23490;53.656;10.076;2023-04-01T04:31:23;99246.59;;;-145.95;100.00
37648;BME280;23490;53.656;10.076;2023-04-01T04:33:49;99261.06;;;-145.95;100.00
37648;BME280;23490;53.656;10.076;2023-04-01T04:36:16;99269.31;;;-145.95;100.00
37648;BME280;23490;53.656;10.076;2023-04-01T04:38:42;99240.41;;;-145.95;100.00
37648;BME280;23490;53.656;10.076;2023-04-01T04:41:17;99256.94;;;-145.95;100.00
37648;BME280;23490;53.656;10.076;2023-04-01T04:43:52;99275.50;;;-145.95;100.00
37648;BME280;23490;53.656;10.076;2023-04-01T04:46:18;99314.75;;;-145.95;100.00
37648;BME280;23490;53.656;10.076;2023-04-01T04:48:44;99335.41;;;-145.95;100.00
37648;BME280;23490;53.656;10.076;2023-04-01T04:51:15;99339.53;;;-145.95;100.00
37648;BME280;23490;53.656;10.076;2023-04-01T04:53:41;99343.66;;;-145.95;100.00
37648;BME280;23490;53.656;10.076;2023-04-01T04:56:06;99351.91;;;-145.95;100.00
37648;BME280;23490;53.656;10.076;2023-04-01T04:58:31;99391.16;;;-145.95;100.00
37648;BME280;23490;53.656;10.076;2023-04-01T05:00:57;99389.09;;;-145.95;100.00
37648;BME280;23490;53.656;10.076;2023-04-01T05:03:22;99380.84;;;-145.95;100.00
37648;BME280;23490;53.656;10.076;2023-04-01T05:05:51;99356.06;;;-145.95;100.00
37648;BME280;23490;53.656;10.076;2023-04-01T05:08:18;99362.25;;;-145.95;100.00
37648;BME280;23490;53.656;10.076;2023-04-01T05:10:43;99413.88;;;-145.95;100.00
37648;BME280;23490;53.656;10.076;2023-04-01T05:13:10;99405.63;;;-145.95;100.00
37648;BME280;23490;53.656;10.076;2023-04-01T05:15:36;99418.00;;;-145.95;100.00
37648;BME280;23490;53.656;10.076;2023-04-01T05:18:02;99389.09;;;-145.95;100.00
37648;BME280;23490;53.656;10.076;2023-04-01T05:20:29;99384.97;;;-145.95;100.00
37648;BME280;23490;53.656;10.076;2023-04-01T05:22:58;99397.34;;;-145.95;100.00
37648;BME280;23490;53.656;10.076;2023-04-01T05:25:24;99368.44;;;-145.95;100.00
37648;BME280;23490;53.656;10.076;2023-04-01T05:27:50;99393.22;;;-145.95;100.00
37648;BME280;23490;53.656;10.076;2023-04-01T05:30:16;99418.00;;;-145.95;100.00
37648;BME280;23490;53.656;10.076;2023-04-01T05:32:41;99405.63;;;-145.95;100.00
37648;BME280;23490;53.656;10.076;2023-04-01T05:35:08;99393.22;;;-145.95;100.00
37648;BME280;23490;53.656;10.076;2023-04-01T05:37:34;99444.84;;;-145.95;100.00
37648;BME280;23490;53.656;10.076;2023-04-01T05:40:00;99418.00;;;-145.95;100.00
37648;BME280;23490;53.656;10.076;2023-04-01T05:42:26;99477.91;;;-145.95;100.00
37648;BME280;23490;53.656;10.076;2023-04-01T05:44:51;99448.97;;;-145.95;100.00
37648;BME280;23490;53.656;10.076;2023-04-01T05:47:17;99444.84;;;-145.95;100.00
37648;BME280;23490;53.656;10.076;2023-04-01T05:49:42;99475.84;;;-145.95;100.00
37648;BME280;23490;53.656;10.076;2023-04-01T05:52:08;99418.00;;;-145.95;100.00
37648;BME280;23490;53.656;10.076;2023-04-01T05:54:33;99467.56;;;-145.95;100.00
37648;BME280;23490;53.656;10.076;2023-04-01T05:56:59;99479.97;;;-145.95;100.00
37648;BME280;23490;53.656;10.076;2023-04-01T05:59:24;99502.69;;;-145.95;100.00
37648;BME280;23490;53.656;10.076;2023-04-01T06:01:50;99448.97;;;-145.95;100.00
37648;BME280;23490;53.656;10.076;2023-04-01T06:04:17;99492.34;;;-145.95;100.00
37648;BME280;23490;53.656;10.076;2023-04-01T06:06:43;99488.22;;;-145.95;100.00
37648;BME280;23490;53.656;10.076;2023-04-01T06:09:19;99488.22;;;-145.95;100.00
37648;BME280;23490;53.656;10.076;2023-04-01T06:15:03;99500.63;;;-145.95;100.00
37648;BME280;23490;53.656;10.076;2023-04-01T06:26:12;99496.47;;;-145.95;100.00
37648;BME280;23490;53.656;10.076;2023-04-01T06:29:00;99482.03;;;-145.95;100.00
37648;BME280;23490;53.656;10.076;2023-04-01T06:40:50;99513.00;;;-145.95;100.00
37648;BME280;23490;53.656;10.076;2023-04-01T06:43:55;99529.53;;;-145.95;100.00
37648;BME280;23490;53.656;10.076;2023-04-01T06:46:45;99488.22;;;-145.95;100.00
37648;BME280;23490;53.656;10.076;2023-04-01T06:52:06;99504.75;;;-145.95;100.00
37648;BME280;23490;53.656;10.076;2023-04-01T06:54:38;99510.94;;;-145.95;100.00
37648;BME280;23490;53.656;10.076;2023-04-01T06:57:16;99508.88;;;-145.95;100.00
37648;BME280;23490;53.656;10.076;2023-04-01T06:59:47;99508.88;;;-145.95;100.00
37648;BME280;23490;53.656;10.076;2023-04-01T07:03:04;99504.75;;;-145.95;100.00
37648;BME280;23490;53.656;10.076;2023-04-01T07:05:33;99521.28;;;-145.95;100.00
37648;BME280;23490;53.656;10.076;2023-04-01T07:08:02;99492.34;;;-145.95;100.00
37648;BME280;23490;53.656;10.076;2023-04-01T07:10:47;99488.22;;;-145.95;100.00
37648;BME280;23490;53.656;10.076;2023-04-01T07:13:24;99504.75;;;-145.95;100.00
37648;BME280;23490;53.656;10.076;2023-04-01T07:16:08;99525.41;;;-145.95;100.00
37648;BME280;23490;53.656;10.076;2023-04-01T07:18:58;99482.03;;;-145.95;100.00
37648;BME280;23490;53.656;10.076;2023-04-01T07:21:31;99513.00;;;-145.95;100.00
37648;BME280;23490;53.656;10.076;2023-04-01T07:24:10;99510.94;;;-145.95;100.00
37648;BME280;23490;53.656;10.076;2023-04-01T07:26:41;99529.53;;;-145.95;100.00
37648;BME280;23490;53.656;10.076;2023-04-01T07:29:14;99508.88;;;-145.95;100.00
37648;BME280;23490;53.656;10.076;2023-04-01T07:34:59;99517.13;;;-145.95;100.00
37648;BME280;23490;53.656;10.076;2023-04-01T07:37:47;99479.97;;;-145.95;100.00
37648;BME280;23490;53.656;10.076;2023-04-01T07:40:36;99523.34;;;-145.95;100.00
37648;BME280;23490;53.656;10.076;2023-04-01T07:45:59;99508.88;;;-145.95;100.00
37648;BME280;23490;53.656;10.076;2023-04-01T07:48:44;99513.00;;;-145.95;100.00
37648;BME280;23490;53.656;10.076;2023-04-01T07:51:15;99506.81;;;-145.95;100.00
37648;BME280;23490;53.656;10.076;2023-04-01T07:54:05;99529.53;;;-145.95;100.00
37648;BME280;23490;53.656;10.076;2023-04-01T07:59:21;99471.69;;;-145.95;100.00
37648;BME280;23490;53.656;10.076;2023-04-01T08:01:49;99523.34;;;-145.95;100.00
37648;BME280;23490;53.656;10.076;2023-04-01T08:04:53;99496.47;;;-145.95;100.00
37648;BME280;23490;53.656;10.076;2023-04-01T08:07:44;99523.34;;;-145.95;100.00
37648;BME280;23490;53.656;10.076;2023-04-01T08:10:30;99488.22;;;-145.95;100.00
37648;BME280;23490;53.656;10.076;2023-04-01T08:13:02;99500.63;;;-145.95;100.00
37648;BME280;23490;53.656;10.076;2023-04-01T08:15:49;99463.44;;;-145.95;100.00
37648;BME280;23490;53.656;10.076;2023-04-01T08:18:31;99500.63;;;-145.95;100.00
37648;BME280;23490;53.656;10.076;2023-04-01T08:21:03;99488.22;;;-145.95;100.00
37648;BME280;23490;53.656;10.076;2023-04-01T08:23:47;99529.53;;;-145.95;100.00
37648;BME280;23490;53.656;10.076;2023-04-01T08:28:57;99525.41;;;-145.95;100.00
37648;BME280;23490;53.656;10.076;2023-04-01T08:31:45;99521.28;;;-145.95;100.00
37648;BME280;23490;53.656;10.076;2023-04-01T08:34:17;99508.88;;;-145.95;100.00
37648;BME280;23490;53.656;10.076;2023-04-01T08:36:52;99521.28;;;-145.95;100.00
37648;BME280;23490;53.656;10.076;2023-04-01T08:39:41;99558.44;;;-145.95;100.00
37648;BME280;23490;53.656;10.076;2023-04-01T08:42:17;99515.06;;;-145.95;100.00
37648;BME280;23490;53.656;10.076;2023-04-01T08:47:46;99500.63;;;-145.95;100.00
37648;BME280;23490;53.656;10.076;2023-04-01T08:50:26;99525.41;;;-145.95;100.00
37648;BME280;23490;53.656;10.076;2023-04-01T08:53:07;99523.34;;;-145.95;100.00
37648;BME280;23490;53.656;10.076;2023-04-01T08:55:56;99552.25;;;-145.95;100.00
37648;BME280;23490;53.656;10.076;2023-04-01T08:58:32;99521.28;;;-145.95;100.00
37648;BME280;23490;53.656;10.076;2023-04-01T09:06:37;99508.88;;;-145.95;100.00
37648;BME280;23490;53.656;10.076;2023-04-01T09:12:19;99519.22;;;-145.95;100.00
37648;BME280;23490;53.656;10.076;2023-04-01T09:18:04;99479.97;;;-145.95;100.00
37648;BME280;23490;53.656;10.076;2023-04-01T09:20:44;99469.63;;;-145.95;100.00
37648;BME280;23490;53.656;10.076;2023-04-01T09:26:44;99471.69;;;-145.95;100.00
37648;BME280;23490;53.656;10.076;2023-04-01T09:29:25;99475.84;;;-145.95;100.00
37648;BME280;23490;53.656;10.076;2023-04-01T09:34:41;99455.19;;;-145.95;100.00
37648;BME280;23490;53.656;10.076;2023-04-01T09:43:11;99515.06;;;-145.95;100.00
37648;BME280;23490;53.656;10.076;2023-04-01T09:45:59;99482.03;;;-145.95;100.00
37648;BME280;23490;53.656;10.076;2023-04-01T09:54:22;99500.63;;;-145.95;100.00
37648;BME280;23490;53.656;10.076;2023-04-01T10:02:45;99459.31;;;-145.95;100.00
37648;BME280;23490;53.656;10.076;2023-04-01T10:05:46;99517.13;;;-145.95;100.00
37648;BME280;23490;53.656;10.076;2023-04-01T10:08:40;99554.31;;;-145.95;100.00
37648;BME280;23490;53.656;10.076;2023-04-01T10:14:23;99502.69;;;-145.95;100.00
37648;BME280;23490;53.656;10.076;2023-04-01T10:37:13;99496.47;;;-145.95;100.00
37648;BME280;23490;53.656;10.076;2023-04-01T10:39:38;99461.38;;;-145.95;100.00
37648;BME280;23490;53.656;10.076;2023-04-01T10:56:57;99486.16;;;-145.95;100.00
37648;BME280;23490;53.656;10.076;2023-04-01T10:59:35;99496.47;;;-145.95;100.00
37648;BME280;23490;53.656;10.076;2023-04-01T11:13:59;99422.13;;;-145.95;100.00
37648;BME280;23490;53.656;10.076;2023-04-01T11:16:52;99465.50;;;-145.95;100.00
37648;BME280;23490;53.656;10.076;2023-04-01T11:25:25;99463.44;;;-145.95;100.00
37648;BME280;23490;53.656;10.076;2023-04-01T11:28:25;99500.63;;;-145.95;100.00
37648;BME280;23490;53.656;10.076;2023-04-01T11:33:54;99457.25;;;-145.95;100.00
37648;BME280;23490;53.656;10.076;2023-04-01T11:36:38;99459.31;;;-145.95;100.00
37648;BME280;23490;53.656;10.076;2023-04-01T11:39:22;99508.88;;;-145.95;100.00
37648;BME280;23490;53.656;10.076;2023-04-01T11:44:51;99521.28;;;-145.95;100.00
37648;BME280;23490;53.656;10.076;2023-04-01T11:53:05;99484.09;;;-145.95;100.00
37648;BME280;23490;53.656;10.076;2023-04-01T11:59:04;99479.97;;;-145.95;100.00
37648;BME280;23490;53.656;10.076;2023-04-01T12:01:53;99504.75;;;-145.95;100.00
37648;BME280;23490;53.656;10.076;2023-04-01T12:12:40;99546.06;;;-145.95;100.00
37648;BME280;23490;53.656;10.076;2023-04-01T12:15:23;99529.53;;;-145.95;100.00
37648;BME280;23490;53.656;10.076;2023-04-01T12:18:14;99541.91;;;-145.95;100.00
37648;BME280;23490;53.656;10.076;2023-04-01T12:21:20;99508.88;;;-145.95;100.00
37648;BME280;23490;53.656;10.076;2023-04-01T12:26:47;99498.56;;;-145.95;100.00
37648;BME280;23490;53.656;10.076;2023-04-01T12:55:19;99533.66;;;-145.95;100.00
37648;BME280;23490;53.656;10.076;2023-04-01T12:57:59;99572.91;;;-145.95;100.00
37648;BME280;23490;53.656;10.076;2023-04-01T13:00:33;99595.63;;;-145.95;100.00
37648;BME280;23490;53.656;10.076;2023-04-01T13:08:41;99541.91;;;-145.95;100.00
37648;BME280;23490;53.656;10.076;2023-04-01T13:14:16;99570.84;;;-145.95;100.00
37648;BME280;23490;53.656;10.076;2023-04-01T13:16:58;99529.53;;;-145.95;100.00
37648;BME280;23490;53.656;10.076;2023-04-01T13:19:47;99558.44;;;-145.95;100.00
37648;BME280;23490;53.656;10.076;2023-04-01T13:22:23;99546.06;;;-145.95;100.00
37648;BME280;23490;53.656;10.076;2023-04-01T13:24:58;99566.69;;;-145.95;100.00
37648;BME280;23490;53.656;10.076;2023-04-01T13:27:33;99562.56;;;-145.95;100.00
37648;BME280;23490;53.656;10.076;2023-04-01T13:30:30;99550.19;;;-145.95;100.00
37648;BME280;23490;53.656;10.076;2023-04-01T13:33:19;99521.28;;;-145.95;100.00
37648;BME280;23490;53.656;10.076;2023-04-01T13:50:04;99558.44;;;-145.95;100.00
37648;BME280;23490;53.656;10.076;2023-04-01T14:00:55;99566.69;;;-145.95;100.00
37648;BME280;23490;53.656;10.076;2023-04-01T14:06:23;99539.84;;;-145.95;100.00
37648;BME280;23490;53.656;10.076;2023-04-01T14:14:36;99556.38;;;-145.95;100.00
37648;BME280;23490;53.656;10.076;2023-04-01T14:20:03;99591.50;;;-145.95;100.00
37648;BME280;23490;53.656;10.076;2023-04-01T14:28:45;99574.97;;;-145.95;100.00
37648;BME280;23490;53.656;10.076;2023-04-01T14:33:59;99517.13;;;-145.95;100.00
37648;BME280;23490;53.656;10.076;2023-04-01T14:36:39;99587.34;;;-145.95;100.00
37648;BME280;23490;53.656;10.076;2023-04-01T14:39:43;99570.84;;;-145.95;100.00
37648;BME280;23490;53.656;10.076;2023-04-01T14:48:39;99570.84;;;-145.95;100.00
37648;BME280;23490;53.656;10.076;2023-04-01T14:56:44;99562.56;;;-145.95;100.00
37648;BME280;23490;53.656;10.076;2023-04-01T15:02:09;99546.06;;;-145.95;100.00
37648;BME280;23490;53.656;10.076;2023-04-01T15:04:50;99574.97;;;-145.95;100.00
37648;BME280;23490;53.656;10.076;2023-04-01T15:23:52;99620.41;;;-145.95;100.00
37648;BME280;23490;53.656;10.076;2023-04-01T15:31:50;99587.34;;;-145.95;100.00
37648;BME280;23490;53.656;10.076;2023-04-01T15:37:29;99595.63;;;-145.95;100.00
37648;BME280;23490;53.656;10.076;2023-04-01T15:43:06;99620.41;;;-145.95;100.00
37648;BME280;23490;53.656;10.076;2023-04-01T15:45:58;99612.16;;;-145.95;100.00
37648;BME280;23490;53.656;10.076;2023-04-01T15:54:04;99636.94;;;-145.95;100.00
37648;BME280;23490;53.656;10.076;2023-04-01T16:00:11;99599.75;;;-145.95;100.00
37648;BME280;23490;53.656;10.076;2023-04-01T16:02:51;99589.44;;;-145.95;100.00
37648;BME280;23490;53.656;10.076;2023-04-01T16:08:20;99599.75;;;-145.95;100.00
37648;BME280;23490;53.656;10.076;2023-04-01T16:13:50;99636.94;;;-145.95;100.00
37648;BME280;23490;53.656;10.076;2023-04-01T16:17:05;99595.63;;;-145.95;100.00
37648;BME280;23490;53.656;10.076;2023-04-01T16:19:51;99624.53;;;-145.95;100.00
37648;BME280;23490;53.656;10.076;2023-04-01T16:22:44;99645.19;;;-145.95;100.00
37648;BME280;23490;53.656;10.076;2023-04-01T16:30:46;99636.94;;;-145.95;100.00
37648;BME280;23490;53.656;10.076;2023-04-01T16:33:35;99634.84;;;-145.95;100.00
37648;BME280;23490;53.656;10.076;2023-04-01T16:36:21;99649.31;;;-145.95;100.00
37648;BME280;23490;53.656;10.076;2023-04-01T16:38:59;99632.78;;;-145.95;100.00
37648;BME280;23490;53.656;10.076;2023-04-01T16:41:32;99643.13;;;-145.95;100.00
37648;BME280;23490;53.656;10.076;2023-04-01T16:44:13;99641.06;;;-145.95;100.00
37648;BME280;23490;53.656;10.076;2023-04-01T16:46:45;99624.53;;;-145.95;100.00
37648;BME280;23490;53.656;10.076;2023-04-01T16:54:28;99645.19;;;-145.95;100.00
37648;BME280;23490;53.656;10.076;2023-04-01T16:57:01;99690.63;;;-145.95;100.00
37648;BME280;23490;53.656;10.076;2023-04-01T16:59:35;99636.94;;;-145.95;100.00
37648;BME280;23490;53.656;10.076;2023-04-01T17:04:43;99614.22;;;-145.95;100.00
37648;BME280;23490;53.656;10.076;2023-04-01T17:07:19;99616.28;;;-145.95;100.00
37648;BME280;23490;53.656;10.076;2023-04-01T17:10:18;99661.72;;;-145.95;100.00
37648;BME280;23490;53.656;10.076;2023-04-01T17:29:04;99665.84;;;-145.95;100.00
37648;BME280;23490;53.656;10.076;2023-04-01T17:37:23;99649.31;;;-145.95;100.00
37648;BME280;23490;53.656;10.076;2023-04-01T17:43:04;99686.50;;;-145.95;100.00
37648;BME280;23490;53.656;10.076;2023-04-01T17:45:56;99663.78;;;-145.95;100.00
37648;BME280;23490;53.656;10.076;2023-04-01T17:59:31;99676.16;;;-145.95;100.00
37648;BME280;23490;53.656;10.076;2023-04-01T18:07:52;99620.41;;;-145.95;100.00
37648;BME280;23490;53.656;10.076;2023-04-01T18:10:38;99647.25;;;-145.95;100.00
37648;BME280;23490;53.656;10.076;2023-04-01T18:13:32;99684.44;;;-145.95;100.00
37648;BME280;23490;53.656;10.076;2023-04-01T18:18:47;99686.50;;;-145.95;99.90
37648;BME280;23490;53.656;10.076;2023-04-01T18:24:35;99657.56;;;-145.95;98.76
37648;BME280;23490;53.656;10.076;2023-04-01T18:29:40;99736.06;;;-145.95;98.84
37648;BME280;23490;53.656;10.076;2023-04-01T18:32:14;99682.38;;;-145.95;97.89
37648;BME280;23490;53.656;10.076;2023-04-01T18:37:42;99694.75;;;-145.95;97.19
37648;BME280;23490;53.656;10.076;2023-04-01T18:43:30;99707.16;;;-145.95;97.24
37648;BME280;23490;53.656;10.076;2023-04-01T18:46:16;99698.88;;;-145.95;96.81
37648;BME280;23490;53.656;10.076;2023-04-01T18:49:00;99678.22;;;-145.95;97.51
37648;BME280;23490;53.656;10.076;2023-04-01T18:54:17;99707.16;;;-145.95;97.27
37648;BME280;23490;53.656;10.076;2023-04-01T18:56:47;99721.59;;;-145.95;97.51
37648;BME280;23490;53.656;10.076;2023-04-01T18:59:25;99694.75;;;-145.95;96.99
37648;BME280;23490;53.656;10.076;2023-04-01T19:02:04;99690.63;;;-145.95;97.37
37648;BME280;23490;53.656;10.076;2023-04-01T19:04:37;99686.50;;;-145.95;97.45
37648;BME280;23490;53.656;10.076;2023-04-01T19:07:39;99715.41;;;-145.95;96.03
37648;BME280;23490;53.656;10.076;2023-04-01T19:18:08;99709.22;;;-145.95;93.45
37648;BME280;23490;53.656;10.076;2023-04-01T19:21:21;99721.59;;;-145.95;91.90
37648;BME280;23490;53.656;10.076;2023-04-01T19:26:26;99736.06;;;-145.95;89.64